createdAt,value
2018-09-13T00:01:27.906Z,24.60
2018-09-13T00:03:55.542Z,24.60
2018-09-13T00:06:23.154Z,24.60
2018-09-13T00:08:50.825Z,24.60
2018-09-13T00:11:18.437Z,24.60
2018-09-13T00:13:46.287Z,24.60
2018-09-13T00:16:13.967Z,24.60
2018-09-13T00:18:41.719Z,24.50
2018-09-13T00:21:09.473Z,24.50
2018-09-13T00:23:37.114Z,24.50
2018-09-13T00:26:04.854Z,24.50
2018-09-13T00:28:32.475Z,24.50
2018-09-13T00:31:00.115Z,24.50
2018-09-13T00:33:27.799Z,24.60
2018-09-13T00:35:55.531Z,24.60
2018-09-13T00:38:23.219Z,24.60
2018-09-13T00:40:50.935Z,24.60
2018-09-13T00:43:18.555Z,24.50
2018-09-13T00:45:46.189Z,24.50
2018-09-13T00:48:13.823Z,24.60
2018-09-13T00:50:41.503Z,24.60
2018-09-13T00:53:09.245Z,24.60
2018-09-13T00:55:36.888Z,24.70
2018-09-13T00:58:04.565Z,24.70
2018-09-13T01:00:32.207Z,24.70
2018-09-13T01:02:59.875Z,24.70
2018-09-13T01:05:27.517Z,24.70
2018-09-13T01:07:55.229Z,24.60
2018-09-13T01:10:22.989Z,24.60
2018-09-13T01:12:50.769Z,24.50
2018-09-13T01:15:18.529Z,24.60
2018-09-13T01:17:46.344Z,24.50
2018-09-13T01:20:14.014Z,24.60
2018-09-13T01:22:41.697Z,24.60
2018-09-13T01:25:09.323Z,24.60
2018-09-13T01:27:36.991Z,24.50
2018-09-13T01:30:04.775Z,24.40
2018-09-13T01:32:32.413Z,24.40
2018-09-13T01:35:00.090Z,24.40
2018-09-13T01:37:27.731Z,24.30
2018-09-13T01:39:55.412Z,24.30
2018-09-13T01:42:23.063Z,24.30
2018-09-13T01:44:50.710Z,24.30
2018-09-13T01:47:18.401Z,24.30
2018-09-13T01:49:46.094Z,24.30
2018-09-13T01:52:13.769Z,24.30
2018-09-13T01:54:41.475Z,24.30
2018-09-13T01:57:09.206Z,24.30
2018-09-13T01:59:36.957Z,24.30
2018-09-13T02:02:04.766Z,24.30
2018-09-13T02:04:32.462Z,24.30
2018-09-13T02:07:00.066Z,24.30
2018-09-13T02:09:27.806Z,24.30
2018-09-13T02:11:55.462Z,24.30
2018-09-13T02:14:23.102Z,24.40
2018-09-13T02:16:50.813Z,24.40
2018-09-13T02:19:18.530Z,24.40
2018-09-13T02:21:46.284Z,24.40
2018-09-13T02:24:14.000Z,24.40
2018-09-13T02:26:41.766Z,24.40
2018-09-13T02:29:09.389Z,24.40
2018-09-13T02:31:37.191Z,24.40
2018-09-13T02:34:04.845Z,24.30
2018-09-13T02:36:32.609Z,24.40
2018-09-13T02:39:00.364Z,24.40
2018-09-13T02:41:28.154Z,24.40
2018-09-13T02:43:55.828Z,24.40
2018-09-13T02:46:23.464Z,24.30
2018-09-13T02:48:51.177Z,24.20
2018-09-13T02:51:18.876Z,24.20
2018-09-13T02:53:46.589Z,24.20
2018-09-13T02:56:14.236Z,24.30
2018-09-13T02:58:41.892Z,24.20
2018-09-13T03:01:09.551Z,24.30
2018-09-13T03:03:37.226Z,24.30
2018-09-13T03:06:04.894Z,24.30
2018-09-13T03:08:32.575Z,24.20
2018-09-13T03:11:00.239Z,24.20
2018-09-13T03:13:27.977Z,24.30
2018-09-13T03:15:55.631Z,24.30
2018-09-13T03:18:23.363Z,24.30
2018-09-13T03:20:50.968Z,24.30
2018-09-13T03:23:18.656Z,24.30
2018-09-13T03:25:46.297Z,24.20
2018-09-13T03:28:13.977Z,24.20
2018-09-13T03:30:41.714Z,24.20
2018-09-13T03:33:09.578Z,24.30
2018-09-13T03:35:37.255Z,24.30
2018-09-13T03:38:05.144Z,24.30
2018-09-13T03:40:32.817Z,24.30
2018-09-13T03:43:00.503Z,24.30
2018-09-13T03:45:28.157Z,24.30
2018-09-13T03:47:55.906Z,24.30
2018-09-13T03:50:23.640Z,24.30
2018-09-13T03:52:53.730Z,24.20
2018-09-13T03:55:21.456Z,24.30
2018-09-13T03:57:49.054Z,24.30
2018-09-13T04:00:16.676Z,24.20
2018-09-13T04:02:44.316Z,24.10
2018-09-13T04:05:11.951Z,24.10
2018-09-13T04:07:39.607Z,24.10
2018-09-13T04:10:07.393Z,24.10
2018-09-13T04:12:35.031Z,24.10
2018-09-13T04:15:02.734Z,24.10
2018-09-13T04:17:30.399Z,24.10
2018-09-13T04:19:58.010Z,24.10
2018-09-13T04:22:25.715Z,24.10
2018-09-13T04:24:53.347Z,24.00
2018-09-13T04:27:21.004Z,23.90
2018-09-13T04:29:48.624Z,23.90
2018-09-13T04:32:16.403Z,23.90
2018-09-13T04:34:44.127Z,23.90
2018-09-13T04:37:11.740Z,23.90
2018-09-13T04:39:39.356Z,23.90
2018-09-13T04:42:07.112Z,23.80
2018-09-13T04:44:34.760Z,23.70
2018-09-13T04:47:02.426Z,23.50
2018-09-13T04:49:30.164Z,23.40
2018-09-13T04:51:57.834Z,23.40
2018-09-13T04:54:25.458Z,23.60
2018-09-13T04:56:53.152Z,23.70
2018-09-13T04:59:20.820Z,23.80
2018-09-13T05:01:48.486Z,23.90
2018-09-13T05:04:16.148Z,24.00
2018-09-13T05:06:43.857Z,24.00
2018-09-13T05:09:12.852Z,24.10
2018-09-13T05:11:40.951Z,24.20
2018-09-13T05:14:08.905Z,24.20
2018-09-13T05:16:36.489Z,24.30
2018-09-13T05:19:04.135Z,24.30
2018-09-13T05:21:32.530Z,24.30
2018-09-13T05:24:00.428Z,24.40
2018-09-13T05:26:28.129Z,24.40
2018-09-13T05:28:55.789Z,24.50
2018-09-13T05:31:23.815Z,24.50
2018-09-13T05:33:51.545Z,24.50
2018-09-13T05:36:19.318Z,24.60
2018-09-13T05:38:46.966Z,24.60
2018-09-13T05:41:15.151Z,24.60
2018-09-13T05:43:42.983Z,24.60
2018-09-13T05:46:10.652Z,24.60
2018-09-13T05:48:38.417Z,24.60
2018-09-13T05:51:06.105Z,24.60
2018-09-13T05:53:33.702Z,24.60
2018-09-13T05:56:01.365Z,24.60
2018-09-13T05:58:28.988Z,24.70
2018-09-13T06:00:56.658Z,24.70
2018-09-13T06:03:24.289Z,24.70
2018-09-13T06:05:52.008Z,24.70
2018-09-13T06:08:19.745Z,24.70
2018-09-13T06:10:47.490Z,24.70
2018-09-13T06:13:15.305Z,24.70
2018-09-13T06:15:43.308Z,24.70
2018-09-13T06:18:10.970Z,24.80
2018-09-13T06:20:38.642Z,24.80
2018-09-13T06:23:06.375Z,24.70
2018-09-13T06:25:34.032Z,24.70
2018-09-13T06:28:01.714Z,24.80
2018-09-13T06:30:29.367Z,24.80
2018-09-13T06:32:57.056Z,24.80
2018-09-13T06:35:24.677Z,24.80
2018-09-13T06:37:52.305Z,24.80
2018-09-13T06:40:20.085Z,24.80
2018-09-13T06:42:47.910Z,24.80
2018-09-13T06:45:15.621Z,24.90
2018-09-13T06:47:43.278Z,24.90
2018-09-13T06:50:10.905Z,24.90
2018-09-13T06:52:38.699Z,24.90
2018-09-13T06:55:06.449Z,24.90
2018-09-13T06:57:34.080Z,24.90
2018-09-13T07:00:01.715Z,24.90
2018-09-13T07:02:29.416Z,24.90
2018-09-13T07:04:57.051Z,24.90
2018-09-13T07:07:24.745Z,24.90
2018-09-13T07:09:52.529Z,24.90
2018-09-13T07:12:20.128Z,24.90
2018-09-13T07:14:48.330Z,24.90
2018-09-13T07:17:15.958Z,24.90
2018-09-13T07:19:43.661Z,24.90
2018-09-13T07:22:11.368Z,24.90
2018-09-13T07:24:39.099Z,24.90
2018-09-13T07:27:06.811Z,24.90
2018-09-13T07:29:34.511Z,24.90
2018-09-13T07:32:02.207Z,24.90
2018-09-13T07:34:29.886Z,24.90
2018-09-13T07:36:57.522Z,24.90
2018-09-13T07:39:25.306Z,24.90
2018-09-13T07:41:52.944Z,24.90
2018-09-13T07:44:20.574Z,24.90
2018-09-13T07:46:48.343Z,24.90
2018-09-13T07:49:16.133Z,24.90
2018-09-13T07:51:43.677Z,24.90
2018-09-13T07:54:11.347Z,24.90
2018-09-13T07:56:38.982Z,24.90
2018-09-13T07:59:06.625Z,24.90
2018-09-13T08:01:34.280Z,24.90
2018-09-13T08:04:01.970Z,24.90
2018-09-13T08:06:29.640Z,24.90
2018-09-13T08:08:57.254Z,24.90
2018-09-13T08:11:25.079Z,24.90
2018-09-13T08:13:52.908Z,25.00
2018-09-13T08:16:20.770Z,24.90
2018-09-13T08:18:48.389Z,24.90
2018-09-13T08:21:16.951Z,24.90
2018-09-13T08:23:44.829Z,25.00
2018-09-13T08:26:12.575Z,25.00
2018-09-13T08:28:40.353Z,25.00
2018-09-13T08:31:08.092Z,24.90
2018-09-13T08:33:35.806Z,24.90
2018-09-13T08:36:03.571Z,25.00
2018-09-13T08:38:31.339Z,25.00
2018-09-13T08:40:59.329Z,25.00
2018-09-13T08:43:27.033Z,25.00
2018-09-13T08:45:54.701Z,25.00
2018-09-13T08:48:22.358Z,25.00
2018-09-13T08:50:50.279Z,25.00
2018-09-13T08:53:17.964Z,25.00
2018-09-13T08:55:45.816Z,25.00
2018-09-13T08:58:13.661Z,25.00
2018-09-13T09:00:41.309Z,25.00
2018-09-13T09:03:09.087Z,25.00
2018-09-13T09:05:36.763Z,25.00
2018-09-13T09:08:04.591Z,25.00
2018-09-13T09:10:32.407Z,25.00
2018-09-13T09:13:00.106Z,25.00
2018-09-13T09:15:27.803Z,25.00
2018-09-13T09:17:55.484Z,25.00
2018-09-13T09:20:23.190Z,25.00
2018-09-13T09:22:50.856Z,25.00
2018-09-13T09:25:18.537Z,25.10
2018-09-13T09:27:46.221Z,25.00
2018-09-13T09:30:13.957Z,25.00
2018-09-13T09:32:41.629Z,25.10
2018-09-13T09:35:09.497Z,25.10
2018-09-13T09:37:37.139Z,25.10
2018-09-13T09:40:04.807Z,25.10
2018-09-13T09:42:32.471Z,25.10
2018-09-13T09:45:00.239Z,25.10
2018-09-13T09:47:27.876Z,25.10
2018-09-13T09:49:55.620Z,25.10
2018-09-13T09:52:23.371Z,25.10
2018-09-13T09:54:50.923Z,25.10
2018-09-13T09:57:18.647Z,25.10
2018-09-13T09:59:46.528Z,25.10
2018-09-13T10:02:18.769Z,25.10
2018-09-13T10:04:46.992Z,25.10
2018-09-13T10:07:14.755Z,25.20
2018-09-13T10:09:42.777Z,25.10
2018-09-13T10:12:11.336Z,25.10
2018-09-13T10:14:39.041Z,25.10
2018-09-13T10:17:12.369Z,25.10
2018-09-13T10:19:45.433Z,25.10
2018-09-13T10:22:18.504Z,25.20
2018-09-13T10:24:51.545Z,25.20
2018-09-13T10:27:24.687Z,25.10
2018-09-13T10:29:57.869Z,25.10
2018-09-13T10:32:30.967Z,25.20
2018-09-13T10:35:04.154Z,25.20
2018-09-13T10:37:37.333Z,25.20
2018-09-13T10:40:10.471Z,25.10
2018-09-13T10:42:43.723Z,25.20
2018-09-13T10:45:16.949Z,25.10
2018-09-13T10:47:56.782Z,25.10
2018-09-13T10:50:23.859Z,25.10
2018-09-13T10:53:14.327Z,25.10
2018-09-13T10:55:42.154Z,25.10
2018-09-13T10:58:09.742Z,25.10
2018-09-13T11:00:37.384Z,25.20
2018-09-13T11:03:05.095Z,25.20
2018-09-13T11:05:32.861Z,25.20
2018-09-13T11:08:00.605Z,25.20
2018-09-13T11:10:28.318Z,25.10
2018-09-13T11:13:02.124Z,25.10
2018-09-13T11:15:33.599Z,25.10
2018-09-13T11:18:01.761Z,25.10
2018-09-13T11:20:29.725Z,25.10
2018-09-13T11:22:57.453Z,25.10
2018-09-13T11:25:25.445Z,25.10
2018-09-13T11:27:53.493Z,25.20
2018-09-13T11:30:21.208Z,25.10
2018-09-13T11:32:48.881Z,25.20
2018-09-13T11:35:16.705Z,25.20
2018-09-13T11:37:44.524Z,25.20
2018-09-13T11:40:12.879Z,25.20
2018-09-13T11:42:40.762Z,25.20
2018-09-13T11:45:08.923Z,25.20
2018-09-13T11:47:36.571Z,25.20
2018-09-13T11:50:04.357Z,25.20
2018-09-13T11:52:32.059Z,25.20
2018-09-13T11:55:01.458Z,25.10
2018-09-13T11:57:29.237Z,25.10
2018-09-13T11:59:56.888Z,25.10
2018-09-13T12:02:24.921Z,25.00
2018-09-13T12:04:52.677Z,25.00
2018-09-13T12:07:20.303Z,24.90
2018-09-13T12:09:48.132Z,24.80
2018-09-13T12:12:15.879Z,24.70
2018-09-13T12:14:43.559Z,24.70
2018-09-13T12:17:11.263Z,24.70
2018-09-13T12:19:39.021Z,24.80
2018-09-13T12:22:06.820Z,24.80
2018-09-13T12:24:34.438Z,24.80
2018-09-13T12:27:02.092Z,24.80
2018-09-13T12:29:29.691Z,24.80
2018-09-13T12:31:57.452Z,24.80
2018-09-13T12:34:25.210Z,24.80
2018-09-13T12:36:53.242Z,24.70
2018-09-13T12:39:20.921Z,24.70
2018-09-13T12:41:48.613Z,24.80
2018-09-13T12:44:16.246Z,24.80
2018-09-13T12:46:43.900Z,24.90
2018-09-13T12:49:12.455Z,24.80
2018-09-13T12:51:40.172Z,24.80
2018-09-13T12:54:07.831Z,24.90
2018-09-13T12:56:35.462Z,24.90
2018-09-13T12:59:03.202Z,24.90
2018-09-13T13:01:30.827Z,24.90
2018-09-13T13:03:58.515Z,24.90
2018-09-13T13:06:26.286Z,25.00
2018-09-13T13:08:53.927Z,25.00
2018-09-13T13:11:21.573Z,25.00
2018-09-13T13:13:49.331Z,25.00
2018-09-13T13:16:17.112Z,25.10
2018-09-13T13:18:44.800Z,25.10
2018-09-13T13:21:12.490Z,25.10
2018-09-13T13:23:40.262Z,25.10
2018-09-13T13:26:07.902Z,25.00
2018-09-13T13:28:35.650Z,25.00
2018-09-13T13:31:03.300Z,25.10
2018-09-13T13:33:30.966Z,25.00
2018-09-13T13:35:58.611Z,25.00
2018-09-13T13:38:26.478Z,25.10
2018-09-13T13:40:54.120Z,25.00
2018-09-13T13:43:21.889Z,25.00
2018-09-13T13:45:49.519Z,25.00
2018-09-13T13:48:17.148Z,25.00
2018-09-13T13:50:44.774Z,25.00
2018-09-13T13:53:12.466Z,25.10
2018-09-13T13:55:40.236Z,25.10
2018-09-13T13:58:07.883Z,25.10
2018-09-13T14:00:35.547Z,25.10
2018-09-13T14:03:03.229Z,25.10
2018-09-13T14:05:30.940Z,25.10
2018-09-13T14:07:58.487Z,25.00
2018-09-13T14:10:26.253Z,25.10
2018-09-13T14:12:54.051Z,25.10
2018-09-13T14:15:21.790Z,25.10
2018-09-13T14:17:49.604Z,25.10
2018-09-13T14:20:17.359Z,25.10
2018-09-13T14:22:45.112Z,25.10
2018-09-13T14:25:13.020Z,25.10
2018-09-13T14:27:40.837Z,25.10
2018-09-13T14:30:08.598Z,25.10
2018-09-13T14:32:36.232Z,25.10
2018-09-13T14:35:03.959Z,25.00
2018-09-13T14:37:31.760Z,25.00
2018-09-13T14:39:59.483Z,25.00
2018-09-13T14:42:27.229Z,25.00
2018-09-13T14:44:54.964Z,25.10
2018-09-13T14:47:22.762Z,25.10
2018-09-13T14:49:50.435Z,25.10
2018-09-13T14:52:18.111Z,25.10
2018-09-13T14:54:45.731Z,25.10
2018-09-13T14:57:13.547Z,25.00
2018-09-13T14:59:41.257Z,25.00
2018-09-13T15:02:08.994Z,25.00
2018-09-13T15:04:36.669Z,25.10
2018-09-13T15:07:04.424Z,25.10
2018-09-13T15:09:32.096Z,25.10
2018-09-13T15:11:59.731Z,25.10
2018-09-13T15:14:27.366Z,25.10
2018-09-13T15:16:55.025Z,25.00
2018-09-13T15:19:22.664Z,25.00
2018-09-13T15:21:50.408Z,25.00
2018-09-13T15:24:18.211Z,25.10
2018-09-13T15:26:45.872Z,25.00
2018-09-13T15:29:13.553Z,25.10
2018-09-13T15:31:41.199Z,25.10
2018-09-13T15:34:08.847Z,25.10
2018-09-13T15:36:36.506Z,25.10
2018-09-13T15:39:06.590Z,25.10
2018-09-13T15:41:34.552Z,25.10
2018-09-13T15:44:02.296Z,25.20
2018-09-13T15:46:30.037Z,25.20
2018-09-13T15:48:57.864Z,25.10
2018-09-13T15:51:25.589Z,25.00
2018-09-13T15:53:53.414Z,25.10
2018-09-13T15:56:21.259Z,25.10
2018-09-13T15:58:49.005Z,25.10
2018-09-13T16:01:16.832Z,25.10
2018-09-13T16:03:44.526Z,25.10
2018-09-13T16:06:12.221Z,25.10
2018-09-13T16:08:40.017Z,25.40
2018-09-13T16:11:07.661Z,25.70
2018-09-13T16:13:35.346Z,25.70
2018-09-13T16:16:03.062Z,25.70
2018-09-13T16:18:30.971Z,25.70
2018-09-13T16:21:08.805Z,26.10
2018-09-13T16:23:36.483Z,26.60
2018-09-13T16:26:04.442Z,26.70
2018-09-13T16:28:32.132Z,26.50
2018-09-13T16:30:59.860Z,26.30
2018-09-13T16:33:27.584Z,26.10
2018-09-13T16:35:55.704Z,26.00
2018-09-13T16:38:30.054Z,25.90
2018-09-13T16:41:03.649Z,25.80
2018-09-13T16:43:36.871Z,25.70
2018-09-13T16:46:04.678Z,25.60
2018-09-13T16:48:37.795Z,25.60
2018-09-13T16:51:05.712Z,25.50
2018-09-13T16:53:33.331Z,25.40
2018-09-13T16:56:01.104Z,25.40
2018-09-13T16:58:29.454Z,25.40
2018-09-13T17:00:57.118Z,25.40
2018-09-13T17:03:24.822Z,25.30
2018-09-13T17:05:52.482Z,25.30
2018-09-13T17:08:20.854Z,25.30
2018-09-13T17:10:48.524Z,25.30
2018-09-13T17:13:16.186Z,25.30
2018-09-13T17:15:43.792Z,25.30
2018-09-13T17:18:11.586Z,25.30
2018-09-13T17:20:39.221Z,25.20
2018-09-13T17:23:06.943Z,25.20
2018-09-13T17:25:34.586Z,25.20
2018-09-13T17:28:02.439Z,25.20
2018-09-13T17:30:30.103Z,25.20
2018-09-13T17:32:57.862Z,25.20
2018-09-13T17:35:25.573Z,25.20
2018-09-13T17:37:53.179Z,25.20
2018-09-13T17:40:20.952Z,25.20
2018-09-13T17:42:48.699Z,25.20
2018-09-13T17:45:16.411Z,25.20
2018-09-13T17:47:44.053Z,25.20
2018-09-13T17:50:11.864Z,25.30
2018-09-13T17:52:39.548Z,25.20
2018-09-13T17:55:07.363Z,25.30
2018-09-13T17:57:35.315Z,25.30
2018-09-13T18:00:03.098Z,25.30
2018-09-13T18:02:30.761Z,25.30
2018-09-13T18:04:58.436Z,25.30
2018-09-13T18:07:26.093Z,25.30
2018-09-13T18:09:53.761Z,25.40
2018-09-13T18:12:21.449Z,25.40
2018-09-13T18:14:49.103Z,25.40
2018-09-13T18:17:16.788Z,25.40
2018-09-13T18:19:44.637Z,25.40
2018-09-13T18:22:12.590Z,25.40
2018-09-13T18:24:40.241Z,25.40
2018-09-13T18:27:07.956Z,25.40
2018-09-13T18:29:35.875Z,25.40
2018-09-13T18:32:03.631Z,25.40
2018-09-13T18:34:31.378Z,25.40
2018-09-13T18:36:59.059Z,25.40
2018-09-13T18:39:26.846Z,25.40
2018-09-13T18:41:55.040Z,25.40
2018-09-13T18:44:22.773Z,25.40
2018-09-13T18:46:50.517Z,25.40
2018-09-13T18:49:18.174Z,25.40
2018-09-13T18:51:45.858Z,25.50
2018-09-13T18:54:13.671Z,25.40
2018-09-13T18:56:41.544Z,25.40
2018-09-13T18:59:09.583Z,25.50
2018-09-13T19:01:37.238Z,25.40
2018-09-13T19:04:04.915Z,25.50
2018-09-13T19:06:32.586Z,25.40
2018-09-13T19:09:00.229Z,25.50
2018-09-13T19:11:27.991Z,25.50
2018-09-13T19:13:55.686Z,25.50
2018-09-13T19:16:23.391Z,25.50
2018-09-13T19:18:51.036Z,25.40
2018-09-13T19:21:18.650Z,25.40
2018-09-13T19:23:46.340Z,25.50
2018-09-13T19:26:14.029Z,25.50
2018-09-13T19:28:41.768Z,25.50
2018-09-13T19:31:09.486Z,25.50
2018-09-13T19:33:37.283Z,25.50
2018-09-13T19:36:05.022Z,25.50
2018-09-13T19:38:32.807Z,25.50
2018-09-13T19:41:00.672Z,25.50
2018-09-13T19:43:28.414Z,25.50
2018-09-13T19:45:56.037Z,25.50
2018-09-13T19:48:23.690Z,25.50
2018-09-13T19:50:51.409Z,25.50
2018-09-13T19:53:19.030Z,25.50
2018-09-13T19:55:46.675Z,25.50
2018-09-13T19:58:14.364Z,25.50
2018-09-13T20:00:42.019Z,25.50
2018-09-13T20:03:09.734Z,25.40
2018-09-13T20:05:37.316Z,25.50
2018-09-13T20:08:05.225Z,25.40
2018-09-13T20:10:32.859Z,25.50
2018-09-13T20:13:00.510Z,25.50
2018-09-13T20:15:28.202Z,25.40
2018-09-13T20:17:55.878Z,25.40
2018-09-13T20:20:23.501Z,25.40
2018-09-13T20:22:51.208Z,25.40
2018-09-13T20:25:18.921Z,25.40
2018-09-13T20:27:47.298Z,25.40
2018-09-13T20:30:15.012Z,25.40
2018-09-13T20:32:43.592Z,25.40
2018-09-13T20:35:11.385Z,25.50
2018-09-13T20:37:39.032Z,25.50
2018-09-13T20:40:06.829Z,25.40
2018-09-13T20:42:34.490Z,25.40
2018-09-13T20:45:02.200Z,25.20
2018-09-13T20:47:29.872Z,25.00
2018-09-13T20:49:57.568Z,25.10
2018-09-13T20:52:25.309Z,25.00
2018-09-13T20:54:53.005Z,25.00
2018-09-13T20:57:20.757Z,25.00
2018-09-13T20:59:48.401Z,24.90
2018-09-13T21:02:16.136Z,24.90
2018-09-13T21:04:43.876Z,24.90
2018-09-13T21:07:11.486Z,24.90
2018-09-13T21:09:39.155Z,24.90
2018-09-13T21:12:06.929Z,24.90
2018-09-13T21:14:34.588Z,24.90
2018-09-13T21:17:02.282Z,24.90
2018-09-13T21:19:29.973Z,24.80
2018-09-13T21:21:57.662Z,24.80
2018-09-13T21:24:25.350Z,24.70
2018-09-13T21:26:53.061Z,24.70
2018-09-13T21:29:20.869Z,24.70
2018-09-13T21:31:48.556Z,24.60
2018-09-13T21:34:16.198Z,24.50
2018-09-13T21:36:43.949Z,24.70
2018-09-13T21:39:11.885Z,24.50
2018-09-13T21:41:39.518Z,24.60
2018-09-13T21:44:07.228Z,24.50
2018-09-13T21:46:34.859Z,24.50
2018-09-13T21:49:02.486Z,24.50
2018-09-13T21:51:30.108Z,24.50
2018-09-13T21:53:57.780Z,24.60
2018-09-13T21:56:25.432Z,24.60
2018-09-13T21:58:53.089Z,24.60
2018-09-13T22:01:20.783Z,24.60
2018-09-13T22:03:48.378Z,24.70
2018-09-13T22:06:15.997Z,24.60
2018-09-13T22:08:43.776Z,24.70
2018-09-13T22:11:11.537Z,24.70
2018-09-13T22:13:39.185Z,24.70
2018-09-13T22:16:06.928Z,24.60
2018-09-13T22:18:34.707Z,24.60
2018-09-13T22:21:02.404Z,24.70
2018-09-13T22:23:30.063Z,24.70
2018-09-13T22:25:57.715Z,24.60
2018-09-13T22:28:25.352Z,24.70
2018-09-13T22:30:53.016Z,24.60
2018-09-13T22:33:20.807Z,24.60
2018-09-13T22:35:48.560Z,24.60
2018-09-13T22:38:16.262Z,24.60
2018-09-13T22:40:44.185Z,24.70
2018-09-13T22:43:11.928Z,24.70
2018-09-13T22:45:39.614Z,24.70
2018-09-13T22:48:07.344Z,24.70
2018-09-13T22:50:35.006Z,24.60
2018-09-13T22:53:02.725Z,24.60
2018-09-13T22:55:30.462Z,24.60
2018-09-13T22:57:58.129Z,24.70
2018-09-13T23:00:25.760Z,24.70
2018-09-13T23:02:53.383Z,24.70
2018-09-13T23:05:21.277Z,24.70
2018-09-13T23:07:48.899Z,24.80
2018-09-13T23:10:17.128Z,24.80
2018-09-13T23:12:44.854Z,24.90
2018-09-13T23:15:12.578Z,24.80
2018-09-13T23:17:40.297Z,24.70
2018-09-13T23:20:07.928Z,24.70
2018-09-13T23:22:35.636Z,24.60
2018-09-13T23:25:03.516Z,25.10
2018-09-13T23:27:31.128Z,24.60
2018-09-13T23:29:58.886Z,24.70
2018-09-13T23:32:26.576Z,24.70
2018-09-13T23:34:54.450Z,24.70
2018-09-13T23:37:22.241Z,24.70
2018-09-13T23:39:50.058Z,24.70
2018-09-13T23:42:17.769Z,24.80
2018-09-13T23:44:45.447Z,24.80
2018-09-13T23:47:13.118Z,24.70
2018-09-13T23:49:40.793Z,24.70
2018-09-13T23:52:08.385Z,24.80
2018-09-13T23:54:36.076Z,24.80
2018-09-13T23:57:03.782Z,24.80
2018-09-13T23:59:31.484Z,24.80
